createdAt,value
2023-04-27T00:01:52.641Z,5.65
2023-04-27T00:04:19.301Z,6.03
2023-04-27T00:06:46.178Z,6.78
2023-04-27T00:09:12.863Z,7.20
2023-04-27T00:11:39.556Z,6.63
2023-04-27T00:14:06.106Z,7.60
2023-04-27T00:16:32.654Z,6.57
2023-04-27T00:18:59.379Z,6.85
2023-04-27T00:21:25.866Z,7.00
2023-04-27T00:23:52.414Z,5.95
2023-04-27T00:26:18.935Z,5.72
2023-04-27T00:28:48.549Z,5.57
2023-04-27T00:31:15.261Z,7.03
2023-04-27T00:33:41.766Z,5.93
2023-04-27T00:36:08.515Z,8.05
2023-04-27T00:38:34.922Z,8.05
2023-04-27T00:41:05.566Z,6.03
2023-04-27T00:43:32.656Z,7.32
2023-04-27T00:45:59.832Z,6.50
2023-04-27T00:48:26.569Z,5.95
2023-04-27T00:50:53.058Z,8.35
2023-04-27T00:53:19.612Z,6.38
2023-04-27T00:55:46.985Z,5.47
2023-04-27T00:58:13.552Z,5.35
2023-04-27T01:00:40.282Z,6.72
2023-04-27T01:03:07.501Z,6.30
2023-04-27T01:05:34.840Z,5.90
2023-04-27T01:08:01.473Z,5.25
2023-04-27T01:10:28.468Z,4.85
2023-04-27T01:12:55.630Z,6.32
2023-04-27T01:15:22.201Z,4.22
2023-04-27T01:17:48.699Z,5.07
2023-04-27T01:20:15.387Z,5.97
2023-04-27T01:22:43.118Z,5.15
2023-04-27T01:25:09.769Z,4.22
2023-04-27T01:27:36.306Z,4.40
2023-04-27T01:30:03.626Z,4.97
2023-04-27T01:32:30.582Z,6.15
2023-04-27T01:34:57.181Z,5.63
2023-04-27T01:37:26.295Z,5.18
2023-04-27T01:39:52.707Z,6.07
2023-04-27T01:42:19.148Z,4.90
2023-04-27T01:44:45.591Z,6.90
2023-04-27T01:47:12.064Z,6.20
2023-04-27T01:49:40.119Z,5.57
2023-04-27T01:52:06.831Z,5.07
2023-04-27T01:54:33.560Z,4.82
2023-04-27T01:57:00.029Z,5.15
2023-04-27T01:59:26.710Z,5.20
2023-04-27T02:01:53.742Z,5.32
2023-04-27T02:04:21.014Z,4.85
2023-04-27T02:06:47.661Z,4.38
2023-04-27T02:09:14.409Z,4.45
2023-04-27T02:11:41.106Z,5.05
2023-04-27T02:14:07.706Z,4.30
2023-04-27T02:16:36.879Z,4.85
2023-04-27T02:19:04.318Z,4.68
2023-04-27T02:21:30.796Z,3.90
2023-04-27T02:23:57.283Z,4.82
2023-04-27T02:26:29.213Z,6.10
2023-04-27T02:28:57.185Z,5.57
2023-04-27T02:31:24.264Z,4.32
2023-04-27T02:33:50.855Z,3.65
2023-04-27T02:36:17.259Z,5.80
2023-04-27T02:38:43.751Z,4.70
2023-04-27T02:41:10.278Z,4.45
2023-04-27T02:43:36.734Z,6.35
2023-04-27T02:46:05.817Z,6.05
2023-04-27T02:48:33.320Z,8.27
2023-04-27T02:53:26.289Z,7.85
2023-04-27T02:55:52.863Z,7.97
2023-04-27T02:58:20.031Z,6.68
2023-04-27T03:00:47.630Z,12.15
2023-04-27T03:03:15.560Z,7.07
2023-04-27T03:05:42.272Z,6.78
2023-04-27T03:08:08.829Z,6.93
2023-04-27T03:10:35.768Z,6.55
2023-04-27T03:13:02.737Z,7.38
2023-04-27T03:15:29.288Z,3.50
2023-04-27T03:17:55.872Z,5.28
2023-04-27T03:20:22.522Z,5.03
2023-04-27T03:22:49.038Z,6.60
2023-04-27T03:25:15.759Z,5.50
2023-04-27T03:27:43.457Z,5.43
2023-04-27T03:30:11.803Z,6.45
2023-04-27T03:32:38.475Z,6.70
2023-04-27T03:35:05.320Z,5.68
2023-04-27T03:37:32.706Z,3.95
2023-04-27T03:39:59.989Z,4.70
2023-04-27T03:42:26.536Z,4.95
2023-04-27T03:44:53.365Z,3.92
2023-04-27T03:47:19.936Z,6.70
2023-04-27T03:49:46.710Z,4.65
2023-04-27T03:52:13.288Z,5.93
2023-04-27T03:54:39.748Z,5.05
2023-04-27T03:57:06.384Z,6.50
2023-04-27T03:59:32.857Z,4.78
2023-04-27T04:02:01.086Z,3.65
2023-04-27T04:04:28.280Z,3.50
2023-04-27T04:06:54.915Z,4.45
2023-04-27T04:09:23.938Z,3.97
2023-04-27T04:11:51.838Z,4.22
2023-04-27T04:14:18.958Z,4.85
2023-04-27T04:16:45.400Z,6.68
2023-04-27T04:19:12.860Z,3.53
2023-04-27T04:21:42.622Z,9.85
2023-04-27T04:24:10.321Z,4.32
2023-04-27T04:26:37.394Z,5.63
2023-04-27T04:29:04.041Z,5.75
2023-04-27T04:31:30.698Z,7.13
2023-04-27T04:33:57.237Z,3.20
2023-04-27T04:36:23.952Z,4.35
2023-04-27T04:38:54.831Z,4.15
2023-04-27T04:41:21.462Z,5.05
2023-04-27T04:43:49.382Z,3.95
2023-04-27T04:46:17.318Z,4.75
2023-04-27T04:48:44.041Z,6.03
2023-04-27T04:51:11.532Z,4.05
2023-04-27T04:53:38.152Z,8.88
2023-04-27T04:56:10.558Z,6.80
2023-04-27T04:58:37.249Z,5.82
2023-04-27T05:01:04.490Z,8.07
2023-04-27T05:03:31.246Z,6.30
2023-04-27T05:05:57.838Z,10.02
2023-04-27T05:08:24.336Z,5.78
2023-04-27T05:10:54.393Z,5.30
2023-04-27T05:13:21.248Z,4.85
2023-04-27T05:15:48.106Z,5.07
2023-04-27T05:18:14.718Z,3.63
2023-04-27T05:20:41.346Z,6.70
2023-04-27T05:23:07.948Z,5.13
2023-04-27T05:25:35.022Z,6.50
2023-04-27T05:28:01.551Z,3.92
2023-04-27T05:30:28.026Z,4.63
2023-04-27T05:32:54.540Z,6.30
2023-04-27T05:35:21.402Z,6.32
2023-04-27T05:37:47.879Z,5.10
2023-04-27T05:40:15.334Z,4.82
2023-04-27T05:42:41.792Z,4.78
2023-04-27T05:45:08.559Z,5.25
2023-04-27T05:47:35.159Z,5.65
2023-04-27T05:50:01.848Z,3.70
2023-04-27T05:52:31.043Z,4.45
2023-04-27T05:55:01.389Z,4.60
2023-04-27T05:57:27.878Z,3.88
2023-04-27T05:59:54.305Z,3.85
2023-04-27T06:02:20.874Z,4.20
2023-04-27T06:04:47.705Z,3.90
2023-04-27T06:07:16.136Z,5.57
2023-04-27T06:09:42.895Z,6.13
2023-04-27T06:12:09.593Z,6.38
2023-04-27T06:14:36.739Z,5.22
2023-04-27T06:17:03.835Z,3.88
2023-04-27T06:19:30.453Z,5.70
2023-04-27T06:21:56.867Z,4.32
2023-04-27T06:24:23.381Z,7.78
2023-04-27T06:26:50.156Z,4.10
2023-04-27T06:29:16.672Z,4.88
2023-04-27T06:31:43.276Z,3.88
2023-04-27T06:34:09.756Z,5.18
2023-04-27T06:36:36.445Z,4.30
2023-04-27T06:39:02.988Z,4.07
2023-04-27T06:41:29.474Z,3.63
2023-04-27T06:43:57.451Z,4.68
2023-04-27T06:46:25.139Z,6.45
2023-04-27T06:48:52.724Z,7.03
2023-04-27T06:53:45.583Z,4.70
2023-04-27T06:56:12.208Z,5.28
2023-04-27T06:58:38.788Z,4.28
2023-04-27T07:01:05.388Z,3.90
2023-04-27T07:03:34.707Z,2.95
2023-04-27T07:06:01.336Z,6.78
2023-04-27T07:08:27.776Z,5.10
2023-04-27T07:10:54.210Z,7.15
2023-04-27T07:13:20.601Z,7.90
2023-04-27T07:15:47.076Z,4.47
2023-04-27T07:18:13.642Z,4.28
2023-04-27T07:20:41.186Z,4.60
2023-04-27T07:23:08.195Z,5.07
2023-04-27T07:25:35.691Z,4.55
2023-04-27T07:28:02.363Z,6.95
2023-04-27T07:30:30.779Z,5.40
2023-04-27T07:33:00.981Z,3.97
2023-04-27T07:35:27.643Z,3.50
2023-04-27T07:37:56.622Z,3.38
2023-04-27T07:40:24.165Z,3.30
2023-04-27T07:42:51.124Z,4.75
2023-04-27T07:45:18.034Z,5.03
2023-04-27T07:47:44.652Z,3.88
2023-04-27T07:50:11.267Z,3.47
2023-04-27T07:52:37.842Z,4.53
2023-04-27T07:55:04.704Z,4.60
2023-04-27T07:57:31.568Z,2.88
2023-04-27T07:59:58.110Z,2.67
2023-04-27T08:02:27.055Z,4.60
2023-04-27T08:04:54.066Z,3.38
2023-04-27T08:09:47.459Z,3.60
2023-04-27T08:12:13.935Z,4.45
2023-04-27T08:14:40.443Z,3.72
2023-04-27T08:17:07.083Z,2.45
2023-04-27T08:19:33.589Z,2.15
2023-04-27T08:22:00.768Z,2.38
2023-04-27T08:26:53.671Z,4.57
2023-04-27T08:29:27.736Z,3.78
2023-04-27T08:31:56.921Z,3.40
2023-04-27T08:34:23.796Z,3.22
2023-04-27T08:36:52.456Z,4.68
2023-04-27T08:39:19.154Z,6.82
2023-04-27T08:41:46.402Z,5.13
2023-04-27T08:44:13.240Z,2.85
2023-04-27T08:46:39.929Z,2.90
2023-04-27T08:49:07.860Z,7.05
2023-04-27T08:51:34.619Z,3.40
2023-04-27T08:54:01.404Z,2.63
2023-04-27T08:56:28.699Z,2.65
2023-04-27T08:58:56.216Z,3.00
2023-04-27T09:01:23.873Z,3.90
2023-04-27T09:03:56.122Z,2.42
2023-04-27T09:06:32.911Z,4.40
2023-04-27T09:08:59.897Z,3.22
2023-04-27T09:11:31.435Z,3.35
2023-04-27T09:13:58.937Z,2.67
2023-04-27T09:16:26.444Z,2.28
2023-04-27T09:18:53.293Z,3.05
2023-04-27T09:21:26.821Z,2.40
2023-04-27T09:23:53.723Z,3.78
2023-04-27T09:26:24.194Z,2.20
2023-04-27T09:28:51.845Z,3.13
2023-04-27T09:31:18.506Z,2.80
2023-04-27T09:33:45.988Z,2.55
2023-04-27T09:36:12.544Z,2.53
2023-04-27T09:38:39.368Z,4.53
2023-04-27T09:41:06.671Z,2.50
2023-04-27T09:43:33.427Z,2.80
2023-04-27T09:46:00.056Z,2.47
2023-04-27T09:48:26.896Z,3.30
2023-04-27T09:50:53.488Z,3.15
2023-04-27T09:53:22.282Z,2.30
2023-04-27T09:55:50.536Z,2.90
2023-04-27T09:58:37.007Z,2.63
2023-04-27T10:03:30.079Z,3.85
2023-04-27T10:06:08.799Z,2.25
2023-04-27T10:08:35.947Z,2.10
2023-04-27T10:13:31.489Z,2.50
2023-04-27T10:15:57.978Z,2.25
2023-04-27T10:18:31.872Z,3.88
2023-04-27T10:21:09.665Z,2.63
2023-04-27T10:23:45.492Z,3.17
2023-04-27T10:26:11.966Z,2.22
2023-04-27T10:28:39.419Z,2.50
2023-04-27T10:31:10.006Z,2.97
2023-04-27T10:33:42.772Z,1.80
2023-04-27T10:36:14.630Z,2.83
2023-04-27T10:38:41.941Z,2.30
2023-04-27T10:41:13.803Z,2.38
2023-04-27T10:43:40.952Z,2.00
2023-04-27T10:46:08.212Z,3.92
2023-04-27T10:51:01.602Z,2.50
2023-04-27T10:53:33.991Z,2.35
2023-04-27T10:56:00.392Z,1.92
2023-04-27T10:58:34.621Z,2.17
2023-04-27T11:01:12.618Z,3.05
2023-04-27T11:03:39.266Z,3.55
2023-04-27T11:06:06.376Z,2.55
2023-04-27T11:08:34.232Z,3.10
2023-04-27T11:11:01.636Z,2.42
2023-04-27T11:13:28.600Z,2.42
2023-04-27T11:15:56.142Z,3.78
2023-04-27T11:18:23.709Z,4.05
2023-04-27T11:20:52.434Z,4.20
2023-04-27T11:23:36.913Z,3.53
2023-04-27T11:26:09.412Z,2.40
2023-04-27T11:28:35.939Z,2.20
2023-04-27T11:31:02.479Z,3.15
2023-04-27T11:33:29.230Z,2.42
2023-04-27T11:35:56.746Z,3.15
2023-04-27T11:38:23.494Z,3.60
2023-04-27T11:41:19.556Z,3.88
2023-04-27T11:43:49.959Z,3.05
2023-04-27T11:46:22.888Z,11.85
2023-04-27T11:48:49.439Z,10.43
2023-04-27T11:51:15.950Z,8.75
2023-04-27T11:53:42.968Z,10.18
2023-04-27T11:56:11.043Z,8.45
2023-04-27T11:58:38.926Z,6.75
2023-04-27T12:01:05.777Z,7.38
2023-04-27T12:03:32.686Z,8.35
2023-04-27T12:06:11.626Z,6.28
2023-04-27T12:08:43.229Z,6.45
2023-04-27T12:11:10.058Z,9.52
2023-04-27T12:13:36.635Z,7.57
2023-04-27T12:16:03.200Z,11.43
2023-04-27T12:18:29.640Z,5.70
2023-04-27T12:20:56.131Z,7.13
2023-04-27T12:23:22.583Z,5.95
2023-04-27T12:25:49.229Z,4.32
2023-04-27T12:28:19.152Z,4.53
2023-04-27T12:30:45.879Z,5.50
2023-04-27T12:33:12.588Z,6.10
2023-04-27T12:35:39.205Z,6.47
2023-04-27T12:38:05.709Z,5.72
2023-04-27T12:40:32.986Z,7.80
2023-04-27T12:43:01.168Z,5.63
2023-04-27T12:45:27.919Z,6.57
2023-04-27T12:48:03.305Z,5.20
2023-04-27T12:50:32.582Z,5.82
2023-04-27T12:52:59.762Z,5.43
2023-04-27T12:55:33.690Z,4.07
2023-04-27T12:58:01.103Z,5.30
2023-04-27T13:00:27.721Z,4.35
2023-04-27T13:02:54.522Z,3.75
2023-04-27T13:05:22.437Z,4.82
2023-04-27T13:07:49.445Z,4.75
2023-04-27T13:10:16.184Z,3.47
2023-04-27T13:12:42.719Z,4.13
2023-04-27T13:15:09.502Z,3.78
2023-04-27T13:17:36.182Z,3.85
2023-04-27T13:20:02.765Z,5.60
2023-04-27T13:22:29.230Z,3.13
2023-04-27T13:24:56.315Z,3.88
2023-04-27T13:27:25.183Z,3.67
2023-04-27T13:29:51.925Z,3.92
2023-04-27T13:32:18.728Z,3.42
2023-04-27T13:34:45.549Z,4.22
2023-04-27T13:37:14.759Z,5.07
2023-04-27T13:39:41.261Z,4.28
2023-04-27T13:42:08.358Z,3.78
2023-04-27T13:47:01.290Z,3.38
2023-04-27T13:49:27.819Z,2.97
2023-04-27T13:51:54.378Z,3.15
2023-04-27T13:54:21.541Z,4.05
2023-04-27T13:56:48.191Z,3.75
2023-04-27T13:59:16.760Z,3.22
2023-04-27T14:01:43.318Z,2.28
2023-04-27T14:04:10.110Z,3.28
2023-04-27T14:06:36.817Z,3.55
2023-04-27T14:09:04.020Z,2.75
2023-04-27T14:13:57.900Z,4.20
2023-04-27T14:16:24.610Z,3.17
2023-04-27T14:18:52.349Z,4.13
2023-04-27T14:21:19.102Z,5.22
2023-04-27T14:23:45.587Z,3.05
2023-04-27T14:26:12.225Z,4.10
2023-04-27T14:28:39.147Z,2.97
2023-04-27T14:31:05.756Z,3.90
2023-04-27T14:33:32.299Z,3.30
2023-04-27T14:35:59.537Z,2.92
2023-04-27T14:38:26.223Z,2.70
2023-04-27T14:40:52.706Z,2.72
2023-04-27T14:43:19.258Z,3.88
2023-04-27T14:45:53.969Z,4.40
2023-04-27T14:48:22.236Z,3.53
2023-04-27T14:50:48.732Z,3.70
2023-04-27T14:53:15.208Z,2.63
2023-04-27T14:55:43.834Z,3.88
2023-04-27T14:58:10.299Z,4.43
2023-04-27T15:00:36.972Z,2.72
2023-04-27T15:03:03.691Z,2.70
2023-04-27T15:05:30.378Z,3.42
2023-04-27T15:07:56.816Z,4.50
2023-04-27T15:10:23.249Z,3.08
2023-04-27T15:12:49.772Z,4.07
2023-04-27T15:15:16.343Z,3.65
2023-04-27T15:17:42.816Z,3.35
2023-04-27T15:20:10.778Z,4.30
2023-04-27T15:22:37.262Z,4.18
2023-04-27T15:25:03.787Z,4.43
2023-04-27T15:27:30.300Z,3.33
2023-04-27T15:29:58.064Z,2.88
2023-04-27T15:32:29.824Z,2.65
2023-04-27T15:34:59.694Z,3.33
2023-04-27T15:37:27.931Z,3.95
2023-04-27T15:39:54.942Z,3.30
2023-04-27T15:42:21.804Z,4.78
2023-04-27T15:44:48.352Z,2.88
2023-04-27T15:47:15.345Z,3.25
2023-04-27T15:49:53.358Z,4.50
2023-04-27T15:52:23.091Z,3.30
2023-04-27T15:54:49.662Z,4.55
2023-04-27T15:57:18.227Z,3.65
2023-04-27T15:59:44.754Z,4.15
2023-04-27T16:02:12.500Z,3.97
2023-04-27T16:04:39.186Z,4.47
2023-04-27T16:07:07.064Z,4.97
2023-04-27T16:09:33.670Z,4.13
2023-04-27T16:12:00.203Z,6.25
2023-04-27T16:14:26.736Z,6.07
2023-04-27T16:16:54.881Z,4.53
2023-04-27T16:19:22.474Z,4.95
2023-04-27T16:21:48.944Z,4.95
2023-04-27T16:24:15.504Z,5.72
2023-04-27T16:26:41.985Z,14.73
2023-04-27T16:29:08.450Z,9.43
2023-04-27T16:31:35.522Z,8.27
2023-04-27T16:34:02.131Z,8.30
2023-04-27T16:36:28.775Z,6.13
2023-04-27T16:38:55.646Z,5.38
2023-04-27T16:41:22.446Z,5.10
2023-04-27T16:43:50.711Z,6.70
2023-04-27T16:46:17.568Z,5.38
2023-04-27T16:48:44.809Z,6.13
2023-04-27T16:51:11.786Z,4.03
2023-04-27T16:53:38.319Z,5.13
2023-04-27T16:56:04.990Z,6.28
2023-04-27T16:58:33.419Z,4.28
2023-04-27T17:00:59.935Z,4.75
2023-04-27T17:03:26.892Z,5.80
2023-04-27T17:05:53.649Z,4.63
2023-04-27T17:08:20.303Z,4.60
2023-04-27T17:10:46.997Z,3.55
2023-04-27T17:13:15.694Z,5.97
2023-04-27T17:15:42.355Z,6.65
2023-04-27T17:18:09.760Z,3.92
2023-04-27T17:20:36.783Z,5.45
2023-04-27T17:23:03.389Z,3.92
2023-04-27T17:25:30.067Z,3.72
2023-04-27T17:27:56.529Z,4.90
2023-04-27T17:30:23.136Z,4.70
2023-04-27T17:32:58.789Z,3.45
2023-04-27T17:35:26.710Z,5.38
2023-04-27T17:40:21.085Z,8.43
2023-04-27T17:42:47.774Z,5.55
2023-04-27T17:45:14.333Z,4.93
2023-04-27T17:47:40.835Z,5.00
2023-04-27T17:50:07.947Z,2.67
2023-04-27T17:52:34.608Z,5.35
2023-04-27T17:55:01.061Z,5.78
2023-04-27T17:57:27.625Z,4.80
2023-04-27T17:59:54.117Z,8.45
2023-04-27T18:02:20.828Z,4.68
2023-04-27T18:04:47.360Z,4.88
2023-04-27T18:07:13.811Z,4.65
2023-04-27T18:09:40.324Z,4.35
2023-04-27T18:12:11.104Z,3.75
2023-04-27T18:14:38.477Z,5.82
2023-04-27T18:17:05.213Z,3.78
2023-04-27T18:19:31.713Z,3.72
2023-04-27T18:21:58.230Z,4.57
2023-04-27T18:24:24.807Z,4.15
2023-04-27T18:26:51.546Z,3.97
2023-04-27T18:29:18.143Z,4.82
2023-04-27T18:31:44.664Z,5.25
2023-04-27T18:34:11.478Z,7.68
2023-04-27T18:36:37.902Z,8.13
2023-04-27T18:39:04.323Z,8.90
2023-04-27T18:41:30.902Z,7.50
2023-04-27T18:44:02.977Z,8.43
2023-04-27T18:46:29.557Z,7.20
2023-04-27T18:48:56.274Z,8.15
2023-04-27T18:51:26.107Z,6.43
2023-04-27T18:53:53.209Z,7.15
2023-04-27T18:56:19.716Z,6.82
2023-04-27T18:58:48.207Z,6.82
2023-04-27T19:01:22.267Z,6.90
2023-04-27T19:03:49.068Z,8.73
2023-04-27T19:06:15.881Z,6.47
2023-04-27T19:08:43.071Z,7.93
2023-04-27T19:11:09.547Z,7.88
2023-04-27T19:13:36.455Z,7.97
2023-04-27T19:16:03.803Z,7.00
2023-04-27T19:18:30.527Z,6.90
2023-04-27T19:20:58.034Z,7.00
2023-04-27T19:23:24.589Z,8.00
2023-04-27T19:25:51.846Z,7.53
2023-04-27T19:28:21.610Z,6.97
2023-04-27T19:30:48.234Z,8.25
2023-04-27T19:33:15.289Z,10.05
2023-04-27T19:35:41.827Z,9.45
2023-04-27T19:38:08.731Z,7.75
2023-04-27T19:40:35.405Z,6.43
2023-04-27T19:43:01.946Z,5.80
2023-04-27T19:45:28.387Z,6.65
2023-04-27T19:47:54.935Z,6.97
2023-04-27T19:50:21.476Z,7.72
2023-04-27T19:52:47.930Z,6.38
2023-04-27T19:55:14.417Z,5.80
2023-04-27T19:57:40.929Z,7.57
2023-04-27T20:00:11.704Z,8.07
2023-04-27T20:05:08.466Z,5.93
2023-04-27T20:07:35.480Z,10.77
2023-04-27T20:10:03.049Z,6.15
2023-04-27T20:15:02.152Z,6.55
2023-04-27T20:17:28.828Z,5.90
2023-04-27T20:19:56.368Z,5.93
2023-04-27T20:22:23.640Z,6.07
2023-04-27T20:24:50.488Z,5.68
2023-04-27T20:27:17.191Z,6.15
2023-04-27T20:29:45.187Z,6.32
2023-04-27T20:32:12.073Z,7.90
2023-04-27T20:34:38.783Z,5.65
2023-04-27T20:37:05.465Z,5.88
2023-04-27T20:39:32.256Z,7.00
2023-04-27T20:42:00.163Z,5.28
2023-04-27T20:44:26.863Z,4.90
2023-04-27T20:46:53.342Z,6.38
2023-04-27T20:49:32.081Z,5.20
2023-04-27T20:52:01.728Z,6.13
2023-04-27T20:54:28.278Z,4.70
2023-04-27T20:56:54.846Z,4.22
2023-04-27T20:59:21.373Z,4.95
2023-04-27T21:01:47.905Z,5.28
2023-04-27T21:04:14.928Z,5.60
2023-04-27T21:06:41.797Z,4.53
2023-04-27T21:09:08.295Z,5.65
2023-04-27T21:11:34.908Z,4.45
2023-04-27T21:14:01.408Z,5.22
2023-04-27T21:16:27.911Z,4.85
2023-04-27T21:18:54.393Z,4.57
2023-04-27T21:21:22.103Z,3.90
2023-04-27T21:23:54.332Z,5.82
2023-04-27T21:26:27.460Z,4.20
2023-04-27T21:28:53.969Z,4.60
2023-04-27T21:31:21.251Z,4.80
2023-04-27T21:33:47.853Z,3.95
2023-04-27T21:36:14.391Z,4.72
2023-04-27T21:38:40.887Z,5.18
2023-04-27T21:41:07.504Z,4.53
2023-04-27T21:43:34.058Z,4.50
2023-04-27T21:46:00.729Z,4.15
2023-04-27T21:48:27.311Z,5.35
2023-04-27T21:50:53.926Z,4.88
2023-04-27T21:53:20.450Z,4.30
2023-04-27T21:55:46.886Z,5.55
2023-04-27T21:58:13.363Z,8.80
2023-04-27T22:00:39.832Z,15.60
2023-04-27T22:03:06.820Z,4.15
2023-04-27T22:05:33.583Z,6.80
2023-04-27T22:08:00.033Z,5.78
2023-04-27T22:10:26.526Z,5.15
2023-04-27T22:12:52.973Z,5.22
2023-04-27T22:15:20.321Z,7.55
2023-04-27T22:17:47.169Z,19.45
2023-04-27T22:20:14.410Z,9.27
2023-04-27T22:22:41.249Z,11.60
2023-04-27T22:25:07.905Z,7.32
2023-04-27T22:27:42.066Z,9.80
2023-04-27T22:30:11.583Z,7.53
2023-04-27T22:32:38.132Z,10.73
2023-04-27T22:35:08.666Z,7.65
2023-04-27T22:37:37.290Z,7.72
2023-04-27T22:40:05.890Z,10.82
2023-04-27T22:42:32.519Z,11.93
2023-04-27T22:44:58.960Z,11.77
2023-04-27T22:47:25.559Z,10.68
2023-04-27T22:49:54.546Z,8.35
2023-04-27T22:52:21.861Z,8.43
2023-04-27T22:54:48.293Z,10.55
2023-04-27T22:57:14.833Z,7.40
2023-04-27T22:59:41.500Z,13.85
2023-04-27T23:02:08.023Z,9.65
2023-04-27T23:04:34.440Z,10.18
2023-04-27T23:07:00.959Z,7.72
2023-04-27T23:09:27.767Z,8.75
2023-04-27T23:11:54.857Z,8.15
2023-04-27T23:14:21.354Z,7.00
2023-04-27T23:16:47.873Z,8.15
2023-04-27T23:19:14.340Z,7.88
2023-04-27T23:21:40.869Z,7.68
2023-04-27T23:24:07.390Z,9.55
2023-04-27T23:26:33.866Z,9.63
2023-04-27T23:29:00.317Z,8.27
2023-04-27T23:31:26.865Z,7.82
2023-04-27T23:33:53.373Z,7.53
2023-04-27T23:36:19.836Z,7.97
2023-04-27T23:38:46.326Z,7.60
2023-04-27T23:41:12.827Z,8.13
2023-04-27T23:43:39.631Z,7.95
2023-04-27T23:46:06.180Z,6.95
2023-04-27T23:48:32.841Z,8.25
2023-04-27T23:51:00.913Z,5.82
2023-04-27T23:53:27.868Z,7.35
2023-04-27T23:55:54.465Z,7.15
2023-04-27T23:58:21.968Z,5.97
